createdAt,value
2023-02-06T00:00:19.269Z,100029.25
2023-02-06T00:01:23.029Z,100039.56
2023-02-06T00:02:29.545Z,100040.94
2023-02-06T00:03:32.665Z,100038.00
2023-02-06T00:04:35.774Z,100033.56
2023-02-06T00:05:38.917Z,100033.97
2023-02-06T00:06:42.835Z,100040.66
2023-02-06T00:07:45.873Z,100038.09
2023-02-06T00:08:49.687Z,100038.53
2023-02-06T00:09:52.767Z,100034.63
2023-02-06T00:10:55.986Z,100039.19
2023-02-06T00:11:59.144Z,100039.34
2023-02-06T00:13:02.260Z,100043.34
2023-02-06T00:14:05.600Z,100041.50
2023-02-06T00:15:09.219Z,100055.59
2023-02-06T00:16:33.356Z,100049.41
2023-02-06T00:17:37.692Z,100047.78
2023-02-06T00:18:40.948Z,100045.41
2023-02-06T00:19:44.883Z,100050.50
2023-02-06T00:20:47.926Z,100057.19
2023-02-06T00:21:50.924Z,100055.84
2023-02-06T00:22:53.977Z,100063.09
2023-02-06T00:24:00.294Z,100054.25
2023-02-06T00:25:03.874Z,100057.72
2023-02-06T00:26:08.230Z,100054.37
2023-02-06T00:27:11.443Z,100055.44
2023-02-06T00:28:14.708Z,100056.66
2023-02-06T00:29:17.996Z,100053.84
2023-02-06T00:31:28.993Z,100060.38
2023-02-06T00:32:32.061Z,100066.03
2023-02-06T00:33:35.535Z,100058.41
2023-02-06T00:34:38.525Z,100059.72
2023-02-06T00:35:41.688Z,100054.09
2023-02-06T00:36:44.901Z,100058.66
2023-02-06T00:37:48.239Z,100059.72
2023-02-06T00:38:51.341Z,100061.88
2023-02-06T00:39:54.316Z,100070.19
2023-02-06T00:40:57.348Z,100062.81
2023-02-06T00:42:00.408Z,100067.37
2023-02-06T00:43:03.489Z,100064.72
2023-02-06T00:44:06.563Z,100065.50
2023-02-06T00:45:10.531Z,100068.31
2023-02-06T00:46:13.628Z,100067.53
2023-02-06T00:47:16.672Z,100065.62
2023-02-06T00:48:20.048Z,100068.13
2023-02-06T00:49:23.088Z,100075.34
2023-02-06T00:50:26.520Z,100079.00
2023-02-06T00:51:30.213Z,100085.25
2023-02-06T00:52:33.304Z,100077.53
2023-02-06T00:53:36.490Z,100069.75
2023-02-06T00:54:39.601Z,100061.59
2023-02-06T00:55:42.562Z,100066.81
2023-02-06T00:56:46.141Z,100068.03
2023-02-06T00:57:49.328Z,100063.31
2023-02-06T00:58:52.407Z,100065.22
2023-02-06T00:59:55.639Z,100057.00
2023-02-06T01:00:58.836Z,100052.59
2023-02-06T01:02:02.180Z,100054.22
2023-02-06T01:03:05.304Z,100054.59
2023-02-06T01:04:08.385Z,100051.00
2023-02-06T01:05:11.742Z,100053.81
2023-02-06T01:06:14.996Z,100051.16
2023-02-06T01:07:18.130Z,100057.72
2023-02-06T01:08:21.529Z,100055.81
2023-02-06T01:09:24.696Z,100055.81
2023-02-06T01:10:27.920Z,100055.44
2023-02-06T01:11:31.189Z,100055.94
2023-02-06T01:12:36.019Z,100061.44
2023-02-06T01:13:39.354Z,100057.56
2023-02-06T01:14:42.898Z,100051.78
2023-02-06T01:15:46.160Z,100047.13
2023-02-06T01:16:49.685Z,100058.00
2023-02-06T01:17:53.257Z,100052.75
2023-02-06T01:18:56.588Z,100061.19
2023-02-06T01:20:00.210Z,100060.81
2023-02-06T01:21:08.808Z,100065.47
2023-02-06T01:22:11.872Z,100059.97
2023-02-06T01:23:15.123Z,100065.75
2023-02-06T01:24:18.121Z,100055.03
2023-02-06T01:25:21.068Z,100052.09
2023-02-06T01:26:27.386Z,100050.31
2023-02-06T01:27:30.753Z,100051.94
2023-02-06T01:28:40.366Z,100055.44
2023-02-06T01:29:43.581Z,100055.69
2023-02-06T01:30:46.700Z,100060.66
2023-02-06T01:31:49.739Z,100058.91
2023-02-06T01:32:52.781Z,100068.72
2023-02-06T01:33:58.504Z,100061.19
2023-02-06T01:35:01.534Z,100065.75
2023-02-06T01:36:04.643Z,100051.94
2023-02-06T01:37:07.737Z,100046.31
2023-02-06T01:38:10.735Z,100053.16
2023-02-06T01:39:13.823Z,100050.87
2023-02-06T01:40:21.324Z,100058.09
2023-02-06T01:41:24.599Z,100056.31
2023-02-06T01:42:31.054Z,100043.19
2023-02-06T01:43:36.536Z,100054.19
2023-02-06T01:44:40.004Z,100046.00
2023-02-06T01:45:45.731Z,100049.25
2023-02-06T01:46:54.639Z,100048.97
2023-02-06T01:48:02.555Z,100050.47
2023-02-06T01:49:09.341Z,100045.78
2023-02-06T01:50:12.493Z,100043.63
2023-02-06T01:51:23.206Z,100050.34
2023-02-06T01:52:31.139Z,100052.62
2023-02-06T01:53:39.321Z,100054.91
2023-02-06T01:54:46.364Z,100054.37
2023-02-06T01:55:51.989Z,100046.47
2023-02-06T01:57:00.391Z,100054.22
2023-02-06T01:58:05.786Z,100058.66
2023-02-06T01:59:09.301Z,100055.19
2023-02-06T02:00:12.953Z,100050.75
2023-02-06T02:01:16.558Z,100055.03
2023-02-06T02:02:20.271Z,100048.34
2023-02-06T02:03:23.436Z,100052.03
2023-02-06T02:04:28.890Z,100051.78
2023-02-06T02:05:33.969Z,100055.13
2023-02-06T02:06:37.531Z,100043.63
2023-02-06T02:08:04.801Z,100044.03
2023-02-06T02:09:08.764Z,100043.09
2023-02-06T02:10:11.694Z,100037.59
2023-02-06T02:11:24.499Z,100038.53
2023-02-06T02:12:27.616Z,100029.16
2023-02-06T02:13:32.676Z,100028.22
2023-02-06T02:14:37.508Z,100027.13
2023-02-06T02:15:55.013Z,100037.75
2023-02-06T02:17:15.812Z,100031.72
2023-02-06T02:18:43.777Z,100033.03
2023-02-06T02:20:01.774Z,100028.88
2023-02-06T02:21:47.345Z,100023.25
2023-02-06T02:23:44.026Z,100035.47
2023-02-06T02:24:52.670Z,100031.44
2023-02-06T02:26:40.822Z,100032.78
2023-02-06T02:28:05.952Z,100035.72
2023-02-06T02:29:24.159Z,100034.91
2023-02-06T02:30:30.513Z,100027.94
2023-02-06T02:31:42.336Z,100026.06
2023-02-06T02:33:03.286Z,100027.37
2023-02-06T02:34:24.976Z,100043.44
2023-02-06T02:35:30.631Z,100040.66
2023-02-06T02:37:01.998Z,100035.28
2023-02-06T02:38:27.773Z,100034.06
2023-02-06T02:39:42.853Z,100036.87
2023-02-06T02:40:58.259Z,100039.84
2023-02-06T02:42:10.884Z,100045.62
2023-02-06T02:43:42.944Z,100046.44
2023-02-06T02:44:55.158Z,100051.91
2023-02-06T02:46:21.040Z,100051.91
2023-02-06T02:47:31.024Z,100053.91
2023-02-06T02:48:44.146Z,100050.56
2023-02-06T02:49:48.941Z,100050.56
2023-02-06T02:50:54.576Z,100046.81
2023-02-06T02:51:59.129Z,100043.75
2023-02-06T02:53:04.291Z,100041.34
2023-02-06T02:54:08.095Z,100054.50
2023-02-06T02:55:23.336Z,100050.03
2023-02-06T02:56:27.211Z,100045.22
2023-02-06T02:57:32.159Z,100046.03
2023-02-06T02:58:36.139Z,100047.13
2023-02-06T02:59:46.954Z,100050.47
2023-02-06T03:00:57.924Z,100054.19
2023-02-06T03:02:26.817Z,100050.72
2023-02-06T03:03:32.762Z,100056.12
2023-02-06T03:04:46.416Z,100055.97
2023-02-06T03:06:04.235Z,100052.47
2023-02-06T03:07:35.057Z,100053.53
2023-02-06T03:08:56.179Z,100043.87
2023-02-06T03:10:23.587Z,100046.72
2023-02-06T03:11:27.473Z,100050.87
2023-02-06T03:12:55.548Z,100052.75
2023-02-06T03:14:08.059Z,100054.06
2023-02-06T03:15:38.777Z,100054.50
2023-02-06T03:16:52.544Z,100050.47
2023-02-06T03:18:20.459Z,100044.84
2023-02-06T03:19:35.871Z,100052.22
2023-02-06T03:20:44.171Z,100053.38
2023-02-06T03:21:49.161Z,100056.75
2023-02-06T03:22:54.411Z,100057.16
2023-02-06T03:24:02.208Z,100066.38
2023-02-06T03:25:11.042Z,100061.56
2023-02-06T03:26:17.059Z,100064.78
2023-02-06T03:27:23.038Z,100066.44
2023-02-06T03:28:31.703Z,100055.81
2023-02-06T03:29:38.502Z,100060.63
2023-02-06T03:30:44.142Z,100054.19
2023-02-06T03:31:58.082Z,100060.22
2023-02-06T03:33:07.785Z,100060.59
2023-02-06T03:34:22.308Z,100054.03
2023-02-06T03:35:31.060Z,100055.91
2023-02-06T03:36:34.860Z,100046.12
2023-02-06T03:37:39.221Z,100056.88
2023-02-06T03:38:42.619Z,100051.38
2023-02-06T03:39:45.744Z,100062.50
2023-02-06T03:40:50.383Z,100057.69
2023-02-06T03:41:56.616Z,100055.81
2023-02-06T03:43:04.187Z,100051.16
2023-02-06T03:44:11.463Z,100045.47
2023-02-06T03:45:25.664Z,100047.06
2023-02-06T03:46:30.956Z,100055.94
2023-02-06T03:47:37.462Z,100062.22
2023-02-06T03:48:44.780Z,100066.81
2023-02-06T03:49:50.450Z,100068.91
2023-02-06T03:50:57.432Z,100064.22
2023-02-06T03:52:08.027Z,100056.84
2023-02-06T03:53:13.510Z,100059.78
2023-02-06T03:54:21.372Z,100067.59
2023-02-06T03:55:25.058Z,100063.16
2023-02-06T03:56:47.524Z,100064.09
2023-02-06T03:58:06.180Z,100061.53
2023-02-06T03:59:11.343Z,100063.25
2023-02-06T04:00:14.803Z,100056.81
2023-02-06T04:01:19.572Z,100063.66
2023-02-06T04:02:24.838Z,100060.22
2023-02-06T04:03:28.551Z,100055.13
2023-02-06T04:04:37.325Z,100052.16
2023-02-06T04:05:41.091Z,100058.22
2023-02-06T04:06:44.752Z,100051.09
2023-02-06T04:07:48.163Z,100044.25
2023-02-06T04:08:52.313Z,100043.56
2023-02-06T04:09:55.984Z,100038.47
2023-02-06T04:10:59.226Z,100045.84
2023-02-06T04:12:02.410Z,100044.37
2023-02-06T04:13:05.334Z,100049.12
2023-02-06T04:14:08.339Z,100053.03
2023-02-06T04:15:11.481Z,100045.94
2023-02-06T04:16:14.595Z,100043.28
2023-02-06T04:17:31.510Z,100040.22
2023-02-06T04:18:41.137Z,100051.09
2023-02-06T04:19:44.567Z,100051.47
2023-02-06T04:20:47.654Z,100053.91
2023-02-06T04:21:50.843Z,100045.62
2023-02-06T04:22:54.056Z,100058.09
2023-02-06T04:23:56.992Z,100052.22
2023-02-06T04:24:59.992Z,100041.22
2023-02-06T04:26:03.142Z,100051.78
2023-02-06T04:27:07.577Z,100050.19
2023-02-06T04:28:10.796Z,100049.66
2023-02-06T04:29:13.770Z,100060.47
2023-02-06T04:30:18.593Z,100056.09
2023-02-06T04:31:24.332Z,100061.03
2023-02-06T04:32:27.528Z,100054.28
2023-02-06T04:33:30.618Z,100058.84
2023-02-06T04:34:35.900Z,100058.53
2023-02-06T04:35:39.040Z,100058.31
2023-02-06T04:36:42.185Z,100057.94
2023-02-06T04:37:45.346Z,100060.03
2023-02-06T04:38:48.604Z,100066.53
2023-02-06T04:39:51.583Z,100064.28
2023-02-06T04:40:54.676Z,100062.44
2023-02-06T04:41:57.718Z,100060.47
2023-02-06T04:43:01.025Z,100062.81
2023-02-06T04:44:04.113Z,100059.34
2023-02-06T04:45:08.033Z,100057.41
2023-02-06T04:46:11.079Z,100063.66
2023-02-06T04:47:14.460Z,100061.94
2023-02-06T04:48:17.756Z,100066.75
2023-02-06T04:49:21.112Z,100065.41
2023-02-06T04:50:24.900Z,100068.75
2023-02-06T04:51:27.955Z,100066.91
2023-02-06T04:52:30.973Z,100071.59
2023-02-06T04:53:34.529Z,100069.00
2023-02-06T04:54:37.633Z,100068.19
2023-02-06T04:55:40.787Z,100065.75
2023-02-06T04:56:45.337Z,100068.41
2023-02-06T04:57:48.649Z,100066.44
2023-02-06T04:58:52.230Z,100063.22
2023-02-06T04:59:56.041Z,100064.44
2023-02-06T05:00:59.040Z,100067.22
2023-02-06T05:02:02.383Z,100079.22
2023-02-06T05:03:05.422Z,100076.62
2023-02-06T05:04:08.575Z,100072.28
2023-02-06T05:05:11.800Z,100076.75
2023-02-06T05:06:15.168Z,100076.34
2023-02-06T05:07:18.582Z,100073.38
2023-02-06T05:08:21.968Z,100074.59
2023-02-06T05:09:24.959Z,100079.78
2023-02-06T05:10:28.188Z,100077.97
2023-02-06T05:11:31.265Z,100076.91
2023-02-06T05:12:34.336Z,100076.47
2023-02-06T05:13:37.428Z,100076.03
2023-02-06T05:14:40.470Z,100076.91
2023-02-06T05:15:43.503Z,100077.19
2023-02-06T05:16:47.300Z,100077.00
2023-02-06T05:17:50.498Z,100062.97
2023-02-06T05:18:56.754Z,100063.66
2023-02-06T05:20:00.191Z,100058.56
2023-02-06T05:21:06.590Z,100069.53
2023-02-06T05:22:09.805Z,100069.53
2023-02-06T05:23:12.860Z,100070.31
2023-02-06T05:24:16.008Z,100067.25
2023-02-06T05:25:19.261Z,100079.69
2023-02-06T05:26:22.294Z,100067.78
2023-02-06T05:27:25.978Z,100078.66
2023-02-06T05:28:33.724Z,100077.78
2023-02-06T05:29:37.097Z,100075.84
2023-02-06T05:30:40.149Z,100074.78
2023-02-06T05:31:43.485Z,100073.34
2023-02-06T05:32:46.620Z,100075.06
2023-02-06T05:33:53.788Z,100078.44
2023-02-06T05:35:00.386Z,100077.78
2023-02-06T05:36:08.266Z,100073.06
2023-02-06T05:37:11.861Z,100074.00
2023-02-06T05:38:17.526Z,100068.91
2023-02-06T05:39:20.790Z,100068.66
2023-02-06T05:40:23.978Z,100074.25
2023-02-06T05:41:27.219Z,100069.81
2023-02-06T05:42:30.202Z,100076.12
2023-02-06T05:43:34.081Z,100073.22
2023-02-06T05:44:37.148Z,100077.84
2023-02-06T05:45:40.683Z,100086.22
2023-02-06T05:46:44.434Z,100083.72
2023-02-06T05:47:47.482Z,100087.34
2023-02-06T05:48:52.328Z,100086.81
2023-02-06T05:49:55.462Z,100096.62
2023-02-06T05:50:58.579Z,100100.91
2023-02-06T05:52:01.689Z,100095.50
2023-02-06T05:53:04.717Z,100097.34
2023-02-06T05:54:07.690Z,100097.16
2023-02-06T05:55:10.852Z,100096.12
2023-02-06T05:56:13.857Z,100092.25
2023-02-06T05:57:16.957Z,100080.38
2023-02-06T05:58:22.980Z,100087.25
2023-02-06T05:59:25.892Z,100088.97
2023-02-06T06:00:28.907Z,100085.50
2023-02-06T06:01:31.897Z,100084.03
2023-02-06T06:02:34.950Z,100076.91
2023-02-06T06:03:38.744Z,100082.53
2023-02-06T06:04:41.820Z,100082.81
2023-02-06T06:05:45.723Z,100080.31
2023-02-06T06:06:49.128Z,100086.06
2023-02-06T06:07:52.351Z,100084.37
2023-02-06T06:08:55.439Z,100079.38
2023-02-06T06:09:58.581Z,100078.94
2023-02-06T06:11:03.168Z,100075.94
2023-02-06T06:12:06.426Z,100080.34
2023-02-06T06:13:09.453Z,100083.56
2023-02-06T06:14:12.798Z,100079.38
2023-02-06T06:15:16.039Z,100073.34
2023-02-06T06:16:19.145Z,100071.91
2023-02-06T06:17:22.210Z,100077.53
2023-02-06T06:18:25.525Z,100081.03
2023-02-06T06:19:28.496Z,100077.13
2023-02-06T06:20:31.672Z,100088.66
2023-02-06T06:21:34.777Z,100080.06
2023-02-06T06:22:37.922Z,100083.41
2023-02-06T06:23:41.023Z,100073.25
2023-02-06T06:24:44.198Z,100072.97
2023-02-06T06:25:48.269Z,100071.53
2023-02-06T06:26:51.590Z,100071.22
2023-02-06T06:27:54.617Z,100075.66
2023-02-06T06:28:58.059Z,100065.47
2023-02-06T06:30:01.244Z,100072.97
2023-02-06T06:31:07.372Z,100066.53
2023-02-06T06:32:10.399Z,100076.56
2023-02-06T06:33:15.723Z,100076.22
2023-02-06T06:34:18.974Z,100072.47
2023-02-06T06:35:22.206Z,100076.09
2023-02-06T06:36:25.258Z,100075.94
2023-02-06T06:37:28.310Z,100070.16
2023-02-06T06:38:31.306Z,100066.00
2023-02-06T06:39:34.209Z,100073.81
2023-02-06T06:40:37.399Z,100067.91
2023-02-06T06:41:40.495Z,100069.78
2023-02-06T06:42:43.429Z,100068.97
2023-02-06T06:43:46.438Z,100069.25
2023-02-06T06:44:49.462Z,100070.31
2023-02-06T06:45:52.802Z,100075.44
2023-02-06T06:46:55.903Z,100077.69
2023-02-06T06:47:58.920Z,100082.69
2023-02-06T06:49:01.894Z,100079.19
2023-02-06T06:50:06.332Z,100084.81
2023-02-06T06:51:09.561Z,100082.13
2023-02-06T06:52:24.022Z,100079.97
2023-02-06T06:53:27.787Z,100075.44
2023-02-06T06:54:30.800Z,100075.97
2023-02-06T06:55:34.282Z,100087.13
2023-02-06T06:56:37.625Z,100087.66
2023-02-06T06:57:40.495Z,100081.19
2023-02-06T06:58:45.172Z,100080.00
2023-02-06T06:59:48.734Z,100083.06
2023-02-06T07:00:54.082Z,100079.03
2023-02-06T07:01:57.117Z,100077.19
2023-02-06T07:03:00.280Z,100076.66
2023-02-06T07:04:03.522Z,100081.88
2023-02-06T07:05:07.237Z,100079.88
2023-02-06T07:06:11.737Z,100083.09
2023-02-06T07:07:14.971Z,100079.72
2023-02-06T07:08:18.394Z,100085.91
2023-02-06T07:09:21.584Z,100084.00
2023-02-06T07:10:24.850Z,100083.75
2023-02-06T07:11:27.991Z,100076.25
2023-02-06T07:12:30.870Z,100084.56
2023-02-06T07:13:33.958Z,100082.13
2023-02-06T07:14:37.054Z,100077.53
2023-02-06T07:15:41.194Z,100084.37
2023-02-06T07:16:47.410Z,100080.47
2023-02-06T07:17:50.799Z,100075.91
2023-02-06T07:18:53.982Z,100084.81
2023-02-06T07:19:56.976Z,100085.97
2023-02-06T07:21:00.366Z,100083.41
2023-02-06T07:22:03.396Z,100084.69
2023-02-06T07:23:07.026Z,100092.44
2023-02-06T07:24:10.158Z,100094.47
2023-02-06T07:25:13.305Z,100088.28
2023-02-06T07:26:16.361Z,100084.87
2023-02-06T07:27:19.763Z,100094.47
2023-02-06T07:28:22.979Z,100086.16
2023-02-06T07:29:26.092Z,100081.94
2023-02-06T07:30:29.648Z,100083.03
2023-02-06T07:31:32.618Z,100089.81
2023-02-06T07:32:38.915Z,100092.88
2023-02-06T07:33:42.179Z,100079.53
2023-02-06T07:34:45.277Z,100084.66
2023-02-06T07:35:48.747Z,100084.66
2023-02-06T07:36:52.127Z,100083.22
2023-02-06T07:37:57.715Z,100080.28
2023-02-06T07:39:03.377Z,100090.66
2023-02-06T07:40:07.437Z,100079.28
2023-02-06T07:41:12.631Z,100079.56
2023-02-06T07:42:16.245Z,100083.34
2023-02-06T07:43:19.358Z,100086.66
2023-02-06T07:44:22.354Z,100091.19
2023-02-06T07:45:26.398Z,100088.84
2023-02-06T07:46:29.281Z,100088.91
2023-02-06T07:47:32.276Z,100081.91
2023-02-06T07:48:36.067Z,100082.13
2023-02-06T07:49:39.448Z,100082.84
2023-02-06T07:50:42.572Z,100077.13
2023-02-06T07:51:46.495Z,100084.06
2023-02-06T07:52:49.661Z,100083.28
2023-02-06T07:53:52.854Z,100081.22
2023-02-06T07:54:55.887Z,100075.78
2023-02-06T07:55:59.031Z,100080.03
2023-02-06T07:57:02.135Z,100081.19
2023-02-06T07:58:05.192Z,100077.91
2023-02-06T07:59:08.232Z,100075.81
2023-02-06T08:00:12.071Z,100074.19
2023-02-06T08:01:15.891Z,100068.09
2023-02-06T08:02:18.838Z,100067.75
2023-02-06T08:03:22.282Z,100067.47
2023-02-06T08:04:25.481Z,100073.06
2023-02-06T08:05:28.620Z,100069.06
2023-02-06T08:06:31.738Z,100072.81
2023-02-06T08:07:35.317Z,100066.59
2023-02-06T08:08:38.817Z,100070.13
2023-02-06T08:09:42.780Z,100066.41
2023-02-06T08:10:47.083Z,100062.16
2023-02-06T08:11:50.038Z,100069.41
2023-02-06T08:12:53.081Z,100070.66
2023-02-06T08:13:56.864Z,100070.50
2023-02-06T08:14:59.916Z,100071.00
2023-02-06T08:16:11.644Z,100072.25
2023-02-06T08:17:14.977Z,100072.56
2023-02-06T08:18:18.218Z,100074.75
2023-02-06T08:19:21.361Z,100080.41
2023-02-06T08:20:24.384Z,100076.62
2023-02-06T08:21:28.658Z,100076.59
2023-02-06T08:22:32.045Z,100077.19
2023-02-06T08:23:35.099Z,100069.22
2023-02-06T08:24:38.098Z,100059.75
2023-02-06T08:25:41.137Z,100061.06
2023-02-06T08:26:44.315Z,100065.66
2023-02-06T08:27:47.688Z,100068.94
2023-02-06T08:28:52.412Z,100075.06
2023-02-06T08:29:57.428Z,100072.66
2023-02-06T08:31:00.847Z,100073.25
2023-02-06T08:32:03.973Z,100068.38
2023-02-06T08:33:07.598Z,100062.84
2023-02-06T08:34:13.717Z,100066.25
2023-02-06T08:35:16.947Z,100078.34
2023-02-06T08:36:21.570Z,100075.59
2023-02-06T08:37:24.917Z,100078.41
2023-02-06T08:38:28.089Z,100077.69
2023-02-06T08:39:31.343Z,100071.37
2023-02-06T08:40:34.449Z,100074.13
2023-02-06T08:41:42.506Z,100072.00
2023-02-06T08:42:50.492Z,100073.53
2023-02-06T08:43:56.742Z,100066.72
2023-02-06T08:44:59.624Z,100063.66
2023-02-06T08:46:02.635Z,100074.81
2023-02-06T08:47:10.502Z,100069.56
2023-02-06T08:48:17.430Z,100063.19
2023-02-06T08:49:22.523Z,100062.97
2023-02-06T08:50:25.737Z,100067.56
2023-02-06T08:51:29.248Z,100069.59
2023-02-06T08:52:32.134Z,100058.13
2023-02-06T08:53:35.779Z,100061.66
2023-02-06T08:54:39.075Z,100061.19
2023-02-06T08:55:42.202Z,100063.59
2023-02-06T08:56:46.032Z,100055.97
2023-02-06T08:57:49.124Z,100067.56
2023-02-06T08:58:54.080Z,100056.84
2023-02-06T08:59:57.265Z,100068.16
2023-02-06T09:01:09.852Z,100071.00
2023-02-06T09:02:13.133Z,100070.87
2023-02-06T09:03:16.295Z,100071.81
2023-02-06T09:04:19.838Z,100070.66
2023-02-06T09:05:23.124Z,100062.03
2023-02-06T09:06:27.141Z,100067.56
2023-02-06T09:07:31.839Z,100066.53
2023-02-06T09:08:34.945Z,100067.06
2023-02-06T09:09:38.163Z,100073.63
2023-02-06T09:10:41.366Z,100066.56
2023-02-06T09:11:44.549Z,100068.63
2023-02-06T09:12:47.727Z,100073.19
2023-02-06T09:13:52.137Z,100077.81
2023-02-06T09:14:55.142Z,100080.25
2023-02-06T09:15:58.264Z,100074.09
2023-02-06T09:17:01.536Z,100075.28
2023-02-06T09:18:04.781Z,100073.66
2023-02-06T09:19:08.496Z,100079.88
2023-02-06T09:20:11.492Z,100078.19
2023-02-06T09:21:15.952Z,100082.00
2023-02-06T09:22:19.063Z,100080.16
2023-02-06T09:23:22.053Z,100079.91
2023-02-06T09:24:25.636Z,100076.44
2023-02-06T09:25:31.578Z,100077.00
2023-02-06T09:26:44.773Z,100066.81
2023-02-06T09:27:57.173Z,100066.69
2023-02-06T09:29:03.383Z,100062.81
2023-02-06T09:30:06.812Z,100076.19
2023-02-06T09:31:11.230Z,100072.69
2023-02-06T09:32:14.487Z,100075.09
2023-02-06T09:33:17.643Z,100074.28
2023-02-06T09:34:20.557Z,100074.81
2023-02-06T09:35:23.762Z,100084.66
2023-02-06T09:36:27.059Z,100079.56
2023-02-06T09:37:30.163Z,100086.16
2023-02-06T09:38:35.933Z,100079.41
2023-02-06T09:39:38.938Z,100081.44
2023-02-06T09:40:42.008Z,100073.25
2023-02-06T09:42:00.282Z,100076.97
2023-02-06T09:43:04.383Z,100076.00
2023-02-06T09:44:07.355Z,100082.22
2023-02-06T09:45:23.079Z,100080.25
2023-02-06T09:46:31.775Z,100080.38
2023-02-06T09:47:38.250Z,100079.75
2023-02-06T09:48:43.392Z,100083.66
2023-02-06T09:50:06.436Z,100077.97
2023-02-06T09:51:40.229Z,100083.03
2023-02-06T09:52:57.618Z,100078.63
2023-02-06T09:54:15.898Z,100081.69
2023-02-06T09:55:43.883Z,100079.12
2023-02-06T09:56:59.524Z,100072.56
2023-02-06T09:58:41.050Z,100069.69
2023-02-06T09:59:52.656Z,100078.91
2023-02-06T10:01:17.656Z,100069.03
2023-02-06T10:02:48.712Z,100074.97
2023-02-06T10:04:15.961Z,100069.56
2023-02-06T10:05:33.064Z,100057.94
2023-02-06T10:07:00.219Z,100057.78
2023-02-06T10:08:27.323Z,100063.09
2023-02-06T10:09:45.126Z,100060.50
2023-02-06T10:10:52.614Z,100063.91
2023-02-06T10:12:13.666Z,100057.84
2023-02-06T10:13:51.809Z,100054.97
2023-02-06T10:15:03.567Z,100046.31
2023-02-06T10:16:37.732Z,100054.41
2023-02-06T10:17:54.300Z,100056.69
2023-02-06T10:19:03.695Z,100054.91
2023-02-06T10:20:16.205Z,100053.47
2023-02-06T10:21:25.680Z,100051.41
2023-02-06T10:22:49.815Z,100051.09
2023-02-06T10:24:42.475Z,100042.12
2023-02-06T10:26:08.164Z,100045.34
2023-02-06T10:27:14.842Z,100046.28
2023-02-06T10:28:21.821Z,100043.78
2023-02-06T10:29:28.606Z,100047.78
2023-02-06T10:31:13.688Z,100048.75
2023-02-06T10:32:35.977Z,100043.13
2023-02-06T10:34:00.802Z,100049.78
2023-02-06T10:35:14.754Z,100046.59
2023-02-06T10:36:56.633Z,100044.88
2023-02-06T10:38:32.449Z,100045.88
2023-02-06T10:39:57.762Z,100037.19
2023-02-06T10:41:03.638Z,100034.13
2023-02-06T10:42:23.014Z,100039.25
2023-02-06T10:43:40.672Z,100028.53
2023-02-06T10:45:01.317Z,100036.09
2023-02-06T10:46:37.731Z,100023.63
2023-02-06T10:48:05.191Z,100027.53
2023-02-06T10:49:42.430Z,100017.53
2023-02-06T10:50:55.311Z,100022.44
2023-02-06T10:52:02.036Z,100010.69
2023-02-06T10:53:13.109Z,100022.66
2023-02-06T10:54:22.773Z,100009.38
2023-02-06T10:55:37.760Z,100012.75
2023-02-06T10:56:46.721Z,100013.72
2023-02-06T10:57:57.669Z,100019.72
2023-02-06T10:59:07.595Z,100011.25
2023-02-06T11:00:39.439Z,100005.25
2023-02-06T11:01:44.937Z,100008.97
2023-02-06T11:03:06.875Z,100013.00
2023-02-06T11:04:33.512Z,100007.63
2023-02-06T11:05:37.035Z,100011.22
2023-02-06T11:06:42.854Z,100008.97
2023-02-06T11:07:50.630Z,100011.03
2023-02-06T11:08:53.775Z,100002.03
2023-02-06T11:09:57.119Z,100009.81
2023-02-06T11:11:27.440Z,100003.75
2023-02-06T11:12:39.596Z,100006.19
2023-02-06T11:13:42.996Z,100001.88
2023-02-06T11:14:46.560Z,100000.69
2023-02-06T11:16:09.881Z,100002.87
2023-02-06T11:17:15.861Z,99998.00
2023-02-06T11:18:24.648Z,99993.91
2023-02-06T11:19:35.516Z,99991.25
2023-02-06T11:20:42.010Z,99985.41
2023-02-06T11:21:51.356Z,99984.56
2023-02-06T11:22:54.728Z,99993.19
2023-02-06T11:24:13.301Z,99981.31
2023-02-06T11:25:25.690Z,99984.78
2023-02-06T11:26:28.817Z,99988.38
2023-02-06T11:27:35.255Z,99988.19
2023-02-06T11:28:50.158Z,99985.34
2023-02-06T11:31:07.376Z,99978.47
2023-02-06T11:32:28.594Z,99980.47
2023-02-06T11:33:54.597Z,99982.66
2023-02-06T11:35:01.529Z,99972.94
2023-02-06T11:36:06.098Z,99969.03
2023-02-06T11:37:36.251Z,99974.59
2023-02-06T11:38:54.856Z,99966.28
2023-02-06T11:40:19.676Z,99972.66
2023-02-06T11:41:22.893Z,99969.63
2023-02-06T11:42:26.184Z,99965.78
2023-02-06T11:43:32.162Z,99969.81
2023-02-06T11:44:39.130Z,99960.25
2023-02-06T11:45:42.374Z,99964.81
2023-02-06T11:46:45.312Z,99957.19
2023-02-06T11:47:48.358Z,99951.53
2023-02-06T11:48:55.036Z,99955.97
2023-02-06T11:50:22.637Z,99960.72
2023-02-06T11:51:27.168Z,99954.87
2023-02-06T11:52:33.029Z,99953.44
2023-02-06T11:53:37.677Z,99958.00
2023-02-06T11:54:40.621Z,99947.94
2023-02-06T11:55:45.155Z,99953.16
2023-02-06T11:57:00.024Z,99951.09
2023-02-06T11:58:14.463Z,99948.22
2023-02-06T11:59:21.886Z,99933.97
2023-02-06T12:00:25.081Z,99937.75
2023-02-06T12:01:28.628Z,99941.84
2023-02-06T12:02:35.137Z,99931.69
2023-02-06T12:03:55.456Z,99945.31
2023-02-06T12:05:13.717Z,99936.75
2023-02-06T12:06:38.756Z,99934.94
2023-02-06T12:08:02.725Z,99932.56
2023-02-06T12:09:12.733Z,99943.34
2023-02-06T12:10:21.051Z,99938.53
2023-02-06T12:11:33.826Z,99929.88
2023-02-06T12:12:42.827Z,99927.13
2023-02-06T12:13:52.976Z,99926.97
2023-02-06T12:15:02.949Z,99929.69
2023-02-06T12:16:15.654Z,99926.88
2023-02-06T12:17:40.388Z,99924.16
2023-02-06T12:18:48.874Z,99925.72
2023-02-06T12:20:16.642Z,99933.13
2023-02-06T12:21:27.360Z,99938.97
2023-02-06T12:22:35.894Z,99935.97
2023-02-06T12:23:44.126Z,99927.66
2023-02-06T12:24:50.031Z,99930.47
2023-02-06T12:25:58.216Z,99923.88
2023-02-06T12:27:17.787Z,99915.75
2023-02-06T12:28:39.173Z,99927.56
2023-02-06T12:29:51.821Z,99921.28
2023-02-06T12:30:58.857Z,99916.06
2023-02-06T12:32:15.567Z,99911.94
2023-02-06T12:33:25.970Z,99911.59
2023-02-06T12:34:42.850Z,99913.69
2023-02-06T12:35:50.050Z,99908.41
2023-02-06T12:37:14.738Z,99908.75
2023-02-06T12:38:32.135Z,99913.97
2023-02-06T12:39:35.575Z,99908.69
2023-02-06T12:41:10.909Z,99899.44
2023-02-06T12:42:52.707Z,99911.41
2023-02-06T12:44:16.225Z,99905.22
2023-02-06T12:45:49.236Z,99911.22
2023-02-06T12:46:59.564Z,99910.13
2023-02-06T12:48:26.308Z,99907.38
2023-02-06T12:49:35.730Z,99912.09
2023-02-06T12:50:48.872Z,99907.84
2023-02-06T12:52:06.865Z,99908.28
2023-02-06T12:53:24.747Z,99914.59
2023-02-06T12:54:53.129Z,99915.28
2023-02-06T12:56:09.785Z,99912.84
2023-02-06T12:57:22.088Z,99910.75
2023-02-06T12:58:33.328Z,99908.22